Time;durP1;ratioP1;P1;durP2;ratioP2;P2;SDS_P1;SDS_P2;PMS_P1;PMS_P2;Temp;Humidity;BMP_temperature;BMP_pressure;BME280_temperature;BME280_humidity;BME280_pressure;Samples;Min_cycle;Max_cycle;Signal;HPM_P1;HPM_P2
2022/10/24 00:00:09;;;;;;;7.65;4.70;;;13.30;99.90;;;;;;5051028;28;20029;-75
2022/10/24 00:02:34;;;;;;;7.03;4.90;;;13.20;99.90;;;;;;5050493;28;20036;-75
2022/10/24 00:05:03;;;;;;;15.15;6.65;;;13.20;99.90;;;;;;5033017;28;20029;-74
2022/10/24 00:07:29;;;;;;;10.75;6.00;;;13.20;99.90;;;;;;5027870;28;20017;-74
2022/10/24 00:09:57;;;;;;;11.60;5.53;;;13.20;99.90;;;;;;5024519;28;20025;-74
2022/10/24 00:12:26;;;;;;;8.40;5.30;;;13.20;99.90;;;;;;5049985;28;20060;-75
2022/10/24 00:14:54;;;;;;;7.50;5.20;;;13.30;99.90;;;;;;5050221;28;20493;-75
2022/10/24 00:17:20;;;;;;;7.30;4.95;;;13.20;99.90;;;;;;5032608;28;20120;-75
2022/10/24 00:19:46;;;;;;;6.25;4.47;;;13.20;99.90;;;;;;5032548;28;20154;-74
2022/10/24 00:22:17;;;;;;;8.43;5.07;;;13.20;99.90;;;;;;5048822;28;20429;-76
2022/10/24 00:24:43;;;;;;;6.35;3.72;;;13.20;99.90;;;;;;5050818;28;20021;-75
2022/10/24 00:27:11;;;;;;;7.18;4.40;;;13.10;99.90;;;;;;5032500;28;20017;-75
2022/10/24 00:29:40;;;;;;;6.50;4.35;;;13.00;99.90;;;;;;5032402;28;20119;-76
2022/10/24 00:32:06;;;;;;;7.00;4.50;;;12.90;99.90;;;;;;5032221;28;20021;-76
2022/10/24 00:34:34;;;;;;;6.80;4.10;;;12.90;99.90;;;;;;5050266;28;20505;-75
2022/10/24 00:37:02;;;;;;;6.28;4.20;;;12.90;99.90;;;;;;5027314;28;20053;-75
2022/10/24 00:39:31;;;;;;;7.97;3.80;;;12.90;99.90;;;;;;5041964;28;20035;-75
2022/10/24 00:41:59;;;;;;;5.47;4.15;;;12.80;99.90;;;;;;5049918;28;20031;-76
2022/10/24 00:44:28;;;;;;;6.65;4.53;;;12.80;99.90;;;;;;5050587;28;20104;-75
2022/10/24 00:47:09;;;;;;;6.93;4.70;;;12.80;99.90;;;;;;5050064;28;20025;-75
2022/10/24 00:49:44;;;;;;;7.32;4.82;;;12.70;99.90;;;;;;5032509;28;20033;-75
2022/10/24 00:52:14;;;;;;;5.65;4.95;;;12.80;99.90;;;;;;5049497;28;20025;-75
2022/10/24 00:54:41;;;;;;;7.18;5.60;;;12.80;99.90;;;;;;5050310;28;20028;-76
2022/10/24 00:57:44;;;;;;;7.30;4.80;;;12.80;99.90;;;;;;5050139;28;20020;-75
2022/10/24 01:00:15;;;;;;;4.93;4.43;;;12.70;99.90;;;;;;4986270;28;20570;-74
2022/10/24 01:02:41;;;;;;;10.02;5.00;;;12.70;99.90;;;;;;5039586;28;20122;-75
2022/10/24 01:05:08;;;;;;;6.13;4.32;;;12.70;99.90;;;;;;5049276;28;20033;-74
2022/10/24 01:08:26;;;;;;;10.38;5.10;;;12.60;99.90;;;;;;5029066;28;20021;-74
2022/10/24 01:11:29;;;;;;;8.43;5.13;;;12.60;99.90;;;;;;5041862;28;20025;-74
2022/10/24 01:14:16;;;;;;;10.18;6.13;;;12.70;99.90;;;;;;5050055;28;20049;-75
2022/10/24 01:17:04;;;;;;;10.50;5.88;;;12.70;99.90;;;;;;5049618;28;20078;-75
2022/10/24 01:19:49;;;;;;;9.25;5.25;;;12.70;99.90;;;;;;5031709;28;20424;-75
2022/10/24 01:22:23;;;;;;;10.45;5.95;;;12.70;99.90;;;;;;5031147;28;20078;-75
2022/10/24 01:25:30;;;;;;;10.35;5.28;;;12.80;99.90;;;;;;5049696;28;20024;-75
2022/10/24 01:28:23;;;;;;;6.28;4.72;;;12.70;99.90;;;;;;5049801;28;20029;-75
2022/10/24 01:30:56;;;;;;;12.63;5.85;;;12.80;99.90;;;;;;5049595;28;20482;-74
2022/10/24 01:33:37;;;;;;;8.60;4.70;;;12.90;99.90;;;;;;5049174;28;20025;-74
2022/10/24 01:36:18;;;;;;;;;;;12.90;99.90;;;;;;5032396;28;20025;-74
2022/10/24 01:39:01;;;;;;;11.32;5.30;;;13.00;99.90;;;;;;5039801;28;19916;-75
2022/10/24 01:41:29;;;;;;;8.88;5.57;;;13.10;99.90;;;;;;5009443;28;20030;-75
2022/10/24 01:44:21;;;;;;;12.23;5.53;;;13.10;99.90;;;;;;4992159;28;20072;-75
2022/10/24 01:46:53;;;;;;;11.70;4.88;;;13.20;99.90;;;;;;5009880;28;20092;-75
2022/10/24 01:49:27;;;;;;;8.68;4.40;;;13.20;99.90;;;;;;4992264;28;20025;-75
2022/10/24 01:52:03;;;;;;;17.08;5.10;;;13.30;99.90;;;;;;5009726;28;20121;-75
2022/10/24 01:54:37;;;;;;;8.82;4.05;;;13.40;99.90;;;;;;4991690;28;20109;-76
2022/10/24 01:57:04;;;;;;;9.20;4.63;;;13.40;99.90;;;;;;4992002;28;20394;-75
2022/10/24 01:59:29;;;;;;;8.05;4.28;;;13.50;99.90;;;;;;4994289;28;20026;-75
2022/10/24 02:02:12;;;;;;;7.72;4.78;;;13.60;99.90;;;;;;4995483;28;20434;-75
2022/10/24 02:04:50;;;;;;;8.82;4.75;;;13.60;99.90;;;;;;4995737;28;20025;-75
2022/10/24 02:07:17;;;;;;;14.02;4.35;;;13.70;99.90;;;;;;4999314;28;20025;-75
2022/10/24 02:09:45;;;;;;;5.20;3.78;;;13.80;99.90;;;;;;5007394;28;20029;-75
2022/10/24 02:12:14;;;;;;;10.90;4.70;;;13.90;99.90;;;;;;5017219;28;20044;-76
2022/10/24 02:14:50;;;;;;;13.40;4.30;;;13.90;99.90;;;;;;5022942;28;20523;-74
2022/10/24 02:17:19;;;;;;;10.07;4.30;;;13.90;99.90;;;;;;5009774;28;20072;-75
2022/10/24 02:19:47;;;;;;;9.43;4.63;;;13.90;99.90;;;;;;5004631;28;20029;-75
2022/10/24 02:22:47;;;;;;;10.77;3.78;;;14.00;99.90;;;;;;5023016;28;20494;-75
2022/10/24 02:25:36;;;;;;;10.35;4.05;;;14.00;99.90;;;;;;5017918;28;20155;-75
2022/10/24 02:29:00;;;;;;;12.38;4.13;;;14.00;99.90;;;;;;5015036;28;20116;-75
2022/10/24 02:31:35;;;;;;;11.13;3.40;;;14.00;99.90;;;;;;4955098;28;20516;-75
2022/10/24 02:34:05;;;;;;;8.52;3.40;;;14.10;99.90;;;;;;4970591;28;20033;-74
2022/10/24 02:36:36;;;;;;;13.63;3.47;;;14.10;99.90;;;;;;4997395;28;20052;-75
2022/10/24 02:39:05;;;;;;;11.70;3.90;;;14.10;99.90;;;;;;5026863;28;20111;-74
2022/10/24 02:41:34;;;;;;;11.15;3.58;;;14.10;99.90;;;;;;5039960;28;20021;-74
2022/10/24 02:44:02;;;;;;;8.18;3.78;;;14.00;99.90;;;;;;5026634;28;20056;-74
2022/10/24 02:46:29;;;;;;;7.22;3.00;;;14.10;99.90;;;;;;4995727;28;20025;-74
2022/10/24 02:49:00;;;;;;;9.32;3.35;;;14.00;99.90;;;;;;5033056;28;20026;-74
2022/10/24 02:51:32;;;;;;;6.80;3.60;;;14.00;99.90;;;;;;5003043;28;20129;-74
2022/10/24 02:54:00;;;;;;;7.32;3.20;;;14.00;99.90;;;;;;5022820;28;20029;-74
2022/10/24 02:56:26;;;;;;;9.30;3.35;;;13.90;99.90;;;;;;5022767;28;20041;-74
2022/10/24 02:58:51;;;;;;;10.38;3.72;;;13.90;99.90;;;;;;4994662;28;20057;-75
2022/10/24 03:01:17;;;;;;;8.38;3.08;;;13.90;99.90;;;;;;5017003;28;20748;-75
2022/10/24 03:03:43;;;;;;;9.18;3.50;;;13.90;99.90;;;;;;5032922;28;20025;-75
2022/10/24 03:06:08;;;;;;;11.27;3.72;;;14.00;99.90;;;;;;5034577;28;20040;-75
2022/10/24 03:08:34;;;;;;;17.95;3.78;;;13.90;99.90;;;;;;5047789;28;20100;-75
2022/10/24 03:11:00;;;;;;;5.82;3.33;;;14.00;99.90;;;;;;5026142;28;20052;-75
2022/10/24 03:13:26;;;;;;;6.43;3.30;;;14.00;99.90;;;;;;5034165;28;20024;-75
2022/10/24 03:15:51;;;;;;;12.80;3.20;;;14.00;99.90;;;;;;5034096;28;20071;-75
2022/10/24 03:18:17;;;;;;;20.08;4.05;;;14.00;99.90;;;;;;5034450;28;20073;-75
2022/10/24 03:20:42;;;;;;;8.30;3.63;;;14.00;99.90;;;;;;5052242;28;20032;-75
2022/10/24 03:23:09;;;;;;;11.85;3.20;;;14.00;99.90;;;;;;5023962;28;20084;-74
2022/10/24 03:25:35;;;;;;;14.73;3.55;;;14.00;99.90;;;;;;5032240;28;20454;-74
2022/10/24 03:28:08;;;;;;;7.80;3.50;;;14.20;99.90;;;;;;5014515;28;20049;-74
2022/10/24 03:30:33;;;;;;;10.85;3.42;;;14.30;99.90;;;;;;5032233;28;20390;-74
2022/10/24 03:33:02;;;;;;;12.07;3.63;;;14.30;99.90;;;;;;5031735;28;20473;-75
2022/10/24 03:35:31;;;;;;;13.77;3.42;;;14.30;99.90;;;;;;5014115;28;20053;-75
2022/10/24 03:37:59;;;;;;;19.02;3.70;;;14.40;99.90;;;;;;5013942;28;20395;-75
2022/10/24 03:40:25;;;;;;;9.15;4.00;;;14.40;99.90;;;;;;5043379;28;20538;-75
2022/10/24 03:42:51;;;;;;;9.57;3.50;;;14.40;99.90;;;;;;5033168;28;20108;-75
2022/10/24 03:45:17;;;;;;;11.73;2.90;;;14.40;99.90;;;;;;5033902;28;20120;-74
2022/10/24 03:47:42;;;;;;;12.80;3.50;;;14.40;99.90;;;;;;5051367;28;20112;-74
2022/10/24 03:50:08;;;;;;;6.85;3.58;;;14.40;99.90;;;;;;5033578;28;20025;-75
2022/10/24 03:52:34;;;;;;;6.03;3.13;;;14.30;99.90;;;;;;5045741;28;20057;-74
2022/10/24 03:54:59;;;;;;;9.50;2.95;;;14.30;99.90;;;;;;5032212;28;20029;-75
2022/10/24 03:57:25;;;;;;;6.80;2.67;;;14.30;99.90;;;;;;5013675;28;20017;-75
2022/10/24 03:59:51;;;;;;;9.90;2.85;;;14.20;99.90;;;;;;5013574;28;20029;-75
2022/10/24 04:02:17;;;;;;;8.82;3.03;;;14.10;99.90;;;;;;5013280;28;20036;-76
2022/10/24 04:04:43;;;;;;;8.45;3.00;;;14.20;99.90;;;;;;5013828;28;20029;-76
2022/10/24 04:07:11;;;;;;;12.18;3.28;;;14.10;99.90;;;;;;5014494;28;20041;-76
2022/10/24 04:09:40;;;;;;;7.97;3.30;;;14.10;99.90;;;;;;5039363;28;20174;-76
2022/10/24 04:12:06;;;;;;;7.35;3.03;;;14.10;99.90;;;;;;5049012;28;20108;-76
2022/10/24 04:14:32;;;;;;;11.82;4.13;;;14.10;99.90;;;;;;5033614;28;20097;-76
2022/10/24 04:16:58;;;;;;;11.70;2.92;;;14.10;99.90;;;;;;5033581;28;20025;-75
2022/10/24 04:19:23;;;;;;;10.95;3.58;;;14.10;99.90;;;;;;5051631;28;20025;-76
2022/10/24 04:21:49;;;;;;;11.98;3.80;;;14.10;99.90;;;;;;5032057;28;20056;-75
2022/10/24 04:24:15;;;;;;;9.15;3.05;;;14.10;99.90;;;;;;5032957;28;20040;-76
2022/10/24 04:26:41;;;;;;;12.13;3.75;;;14.10;99.90;;;;;;5051326;28;20048;-76
2022/10/24 04:29:07;;;;;;;5.95;3.15;;;14.10;99.90;;;;;;5033467;28;20044;-77
2022/10/24 04:31:32;;;;;;;9.20;3.45;;;14.10;99.90;;;;;;5032921;28;20033;-76
2022/10/24 04:34:02;;;;;;;8.23;3.45;;;14.10;99.90;;;;;;5050863;28;20103;-76
2022/10/24 04:36:28;;;;;;;14.73;3.97;;;14.10;99.90;;;;;;5033196;28;20020;-77
2022/10/24 04:38:59;;;;;;;12.10;4.10;;;14.10;99.90;;;;;;5018507;28;20025;-76
2022/10/24 04:41:28;;;;;;;7.85;3.30;;;14.10;99.90;;;;;;5033784;28;20349;-76
2022/10/24 04:43:54;;;;;;;7.63;3.40;;;14.10;99.90;;;;;;5033138;28;20036;-76
2022/10/24 04:46:22;;;;;;;16.58;4.20;;;14.10;99.90;;;;;;5051445;28;20378;-76
2022/10/24 04:48:52;;;;;;;11.32;3.42;;;14.10;99.90;;;;;;5050719;28;20390;-76
2022/10/24 04:51:18;;;;;;;16.80;4.30;;;14.00;99.90;;;;;;5032759;28;20490;-76
2022/10/24 04:53:46;;;;;;;11.02;3.67;;;14.00;99.90;;;;;;5033082;28;20024;-76
2022/10/24 04:56:15;;;;;;;7.75;3.67;;;14.00;99.90;;;;;;5050792;28;20025;-76
2022/10/24 04:58:41;;;;;;;12.27;4.00;;;14.00;99.90;;;;;;5032500;28;20474;-76
2022/10/24 05:01:06;;;;;;;8.05;3.50;;;13.90;99.90;;;;;;5032859;28;20025;-76
2022/10/24 05:03:32;;;;;;;14.52;5.55;;;13.90;99.90;;;;;;5051436;28;20125;-75
2022/10/24 05:05:57;;;;;;;11.63;5.15;;;13.80;99.90;;;;;;5052181;28;20025;-76
2022/10/24 05:08:23;;;;;;;10.00;4.72;;;13.80;99.90;;;;;;5015913;28;20017;-75
2022/10/24 05:10:49;;;;;;;9.77;4.20;;;13.80;99.90;;;;;;5031920;28;20025;-74
2022/10/24 05:13:15;;;;;;;13.93;4.50;;;13.80;99.90;;;;;;5041230;28;20040;-75
2022/10/24 05:15:44;;;;;;;9.38;4.28;;;13.80;99.90;;;;;;5038227;28;20510;-74
2022/10/24 05:18:13;;;;;;;15.43;4.32;;;13.80;99.90;;;;;;5016677;28;20030;-75
2022/10/24 05:20:39;;;;;;;10.55;4.47;;;13.80;99.90;;;;;;5004390;28;20120;-74
2022/10/24 05:23:05;;;;;;;10.55;4.60;;;13.80;99.90;;;;;;4997354;28;20068;-75
2022/10/24 05:25:30;;;;;;;12.95;4.60;;;13.80;99.90;;;;;;4996579;28;20037;-75
2022/10/24 05:27:56;;;;;;;12.63;4.18;;;13.90;99.90;;;;;;4995551;28;20025;-75
2022/10/24 05:30:22;;;;;;;13.10;4.03;;;13.90;99.90;;;;;;5013193;28;20038;-76
2022/10/24 05:32:50;;;;;;;12.18;4.63;;;13.90;99.90;;;;;;4996743;28;20081;-76
2022/10/24 05:35:19;;;;;;;10.45;4.30;;;13.90;99.90;;;;;;5018716;28;20021;-77
2022/10/24 05:37:44;;;;;;;9.82;3.75;;;14.00;99.90;;;;;;5005685;28;20032;-78
2022/10/24 05:40:11;;;;;;;8.38;4.55;;;14.10;99.90;;;;;;5038488;28;20104;-78
2022/10/24 05:42:40;;;;;;;15.48;4.80;;;14.10;99.90;;;;;;5041695;28;20040;-78
2022/10/24 05:45:08;;;;;;;12.70;4.38;;;14.20;99.90;;;;;;5031699;28;20097;-78
2022/10/24 05:47:34;;;;;;;11.13;3.88;;;14.20;99.90;;;;;;5024055;28;20052;-77
2022/10/24 05:50:00;;;;;;;8.13;3.80;;;14.30;99.90;;;;;;5026930;28;20490;-77
2022/10/24 05:52:28;;;;;;;11.40;4.65;;;14.40;99.90;;;;;;5027076;28;20029;-76
2022/10/24 05:54:54;;;;;;;8.68;4.20;;;14.40;99.90;;;;;;5019697;28;20041;-76
2022/10/24 05:57:22;;;;;;;13.63;4.20;;;14.40;99.90;;;;;;5020967;28;20025;-77
2022/10/24 05:59:48;;;;;;;16.05;5.30;;;14.30;99.90;;;;;;5024086;28;20029;-76
2022/10/24 06:02:19;;;;;;;12.68;4.70;;;14.40;99.90;;;;;;5019813;28;20438;-77
2022/10/24 06:04:45;;;;;;;13.50;4.78;;;14.40;99.90;;;;;;5037292;28;20025;-76
2022/10/24 06:07:14;;;;;;;13.05;5.00;;;14.30;99.90;;;;;;5020686;28;20029;-76
2022/10/24 06:09:40;;;;;;;13.23;4.22;;;14.30;99.90;;;;;;5027280;28;20057;-76
2022/10/24 06:12:08;;;;;;;12.52;4.47;;;14.30;99.90;;;;;;5036756;28;20067;-76
2022/10/24 06:14:37;;;;;;;12.32;3.97;;;14.30;99.90;;;;;;5057706;28;20019;-76
2022/10/24 06:17:05;;;;;;;15.40;5.75;;;14.40;99.90;;;;;;5039473;28;20028;-76
2022/10/24 06:19:31;;;;;;;17.50;5.13;;;14.40;99.90;;;;;;5039748;28;20241;-76
2022/10/24 06:22:00;;;;;;;14.05;5.10;;;14.40;99.90;;;;;;5057576;28;20444;-76
2022/10/24 06:24:25;;;;;;;9.45;4.50;;;14.40;99.90;;;;;;5038361;28;20021;-76
2022/10/24 06:26:51;;;;;;;14.98;5.13;;;14.40;99.90;;;;;;5057413;28;20040;-76
2022/10/24 06:29:17;;;;;;;8.45;4.47;;;14.40;99.90;;;;;;5040780;28;20029;-76
2022/10/24 06:31:42;;;;;;;12.20;4.20;;;14.40;99.90;;;;;;5039827;28;20115;-76
2022/10/24 06:34:08;;;;;;;9.07;4.13;;;14.40;99.90;;;;;;5041292;28;20021;-76
2022/10/24 06:36:35;;;;;;;17.20;5.57;;;14.30;99.90;;;;;;5059930;28;20111;-76
2022/10/24 06:39:01;;;;;;;15.00;4.85;;;14.40;99.90;;;;;;5026327;28;20064;-76
2022/10/24 06:41:27;;;;;;;20.15;4.85;;;14.40;99.90;;;;;;5026023;28;20041;-76
2022/10/24 06:43:55;;;;;;;13.25;4.95;;;14.40;99.90;;;;;;5029151;28;20029;-76
2022/10/24 06:46:22;;;;;;;16.52;5.38;;;14.40;99.90;;;;;;5033120;28;20024;-76
2022/10/24 06:48:52;;;;;;;12.32;4.63;;;14.40;99.90;;;;;;5041569;28;20093;-76
2022/10/24 06:51:17;;;;;;;19.98;5.70;;;14.40;99.90;;;;;;5057652;28;20032;-76
2022/10/24 06:53:43;;;;;;;14.68;5.07;;;14.50;99.90;;;;;;5056186;28;20029;-76
2022/10/24 06:56:09;;;;;;;12.48;4.63;;;14.50;99.90;;;;;;5029628;28;20022;-76
2022/10/24 06:58:37;;;;;;;9.82;5.15;;;14.60;99.90;;;;;;5033852;28;20119;-76
2022/10/24 07:01:09;;;;;;;15.32;5.80;;;14.60;99.90;;;;;;5038151;28;20207;-76
2022/10/24 07:03:34;;;;;;;16.10;5.68;;;14.70;99.90;;;;;;5055757;28;20024;-76
2022/10/24 07:06:09;;;;;;;13.27;4.65;;;14.70;99.90;;;;;;5022098;28;20044;-76
2022/10/24 07:08:34;;;;;;;20.27;5.78;;;14.70;99.90;;;;;;5018464;28;20025;-75
2022/10/24 07:11:00;;;;;;;16.05;5.28;;;14.80;99.90;;;;;;5026795;28;20030;-76
2022/10/24 07:13:26;;;;;;;19.65;5.30;;;14.80;99.90;;;;;;5016563;28;20498;-75
2022/10/24 07:15:54;;;;;;;11.45;4.95;;;14.90;99.90;;;;;;5027251;28;20029;-76
2022/10/24 07:18:19;;;;;;;8.85;4.70;;;15.00;99.90;;;;;;5045945;28;20017;-76
2022/10/24 07:20:45;;;;;;;17.48;4.97;;;15.10;99.90;;;;;;5036132;28;20548;-76
2022/10/24 07:23:11;;;;;;;15.90;5.65;;;15.10;99.90;;;;;;5035051;28;20060;-76
2022/10/24 07:25:38;;;;;;;15.18;5.32;;;15.10;99.90;;;;;;5036244;28;20029;-76
2022/10/24 07:28:06;;;;;;;14.55;5.57;;;15.10;99.90;;;;;;5027692;28;20036;-76
2022/10/24 07:30:32;;;;;;;13.00;4.43;;;15.20;99.90;;;;;;5028061;28;20021;-76
2022/10/24 07:32:58;;;;;;;12.93;4.68;;;15.20;99.90;;;;;;5035778;28;20020;-76
2022/10/24 07:35:24;;;;;;;14.75;4.78;;;15.40;99.90;;;;;;5034169;28;20059;-76
2022/10/24 07:37:50;;;;;;;13.55;4.82;;;15.30;99.90;;;;;;5006170;28;20032;-76
2022/10/24 07:40:16;;;;;;;13.90;4.78;;;15.40;99.90;;;;;;5043226;28;20036;-76
2022/10/24 07:42:42;;;;;;;12.27;4.47;;;15.40;99.90;;;;;;5019243;28;20033;-76
2022/10/24 07:45:08;;;;;;;13.93;4.53;;;15.50;99.90;;;;;;5024250;28;20041;-76
2022/10/24 07:47:34;;;;;;;8.25;4.03;;;15.50;99.90;;;;;;5035559;28;20136;-76
2022/10/24 07:50:00;;;;;;;11.02;5.05;;;15.60;99.90;;;;;;5053279;28;20508;-76
2022/10/24 07:52:26;;;;;;;14.52;4.97;;;15.60;99.90;;;;;;5034803;28;20104;-76
2022/10/24 07:54:53;;;;;;;18.45;4.95;;;15.70;99.90;;;;;;5025796;28;20121;-76
2022/10/24 07:57:19;;;;;;;13.73;4.72;;;15.70;99.90;;;;;;5033570;28;20021;-76
2022/10/24 07:59:45;;;;;;;17.38;5.10;;;15.80;99.90;;;;;;5022102;28;20025;-76
2022/10/24 08:02:12;;;;;;;11.40;4.65;;;15.90;99.90;;;;;;5042253;28;20025;-76
2022/10/24 08:04:38;;;;;;;14.80;4.75;;;15.80;99.90;;;;;;5044049;28;20028;-76
2022/10/24 08:07:06;;;;;;;11.82;4.75;;;15.90;99.90;;;;;;5016996;28;20025;-76
2022/10/24 08:09:36;;;;;;;21.00;4.45;;;16.10;99.90;;;;;;5022899;28;20478;-76
2022/10/24 08:12:03;;;;;;;12.30;4.63;;;16.10;99.90;;;;;;5031872;28;20317;-76
2022/10/24 08:14:31;;;;;;;12.05;4.03;;;16.10;99.90;;;;;;5034720;28;20025;-76
2022/10/24 08:17:00;;;;;;;22.00;5.05;;;16.20;99.90;;;;;;5027189;28;20029;-76
2022/10/24 08:19:26;;;;;;;13.25;4.20;;;16.30;99.90;;;;;;5025794;28;20371;-76
2022/10/24 08:21:52;;;;;;;13.20;3.97;;;16.30;99.90;;;;;;5034118;28;20067;-76
2022/10/24 08:24:17;;;;;;;9.38;4.20;;;16.50;99.90;;;;;;5022951;28;20022;-76
2022/10/24 08:26:43;;;;;;;9.73;4.22;;;16.60;99.90;;;;;;5044210;28;20386;-76
2022/10/24 08:29:13;;;;;;;16.10;4.38;;;16.80;99.90;;;;;;5026093;28;20028;-77
2022/10/24 08:31:39;;;;;;;8.00;4.45;;;16.80;99.90;;;;;;5024087;28;20392;-76
2022/10/24 08:34:05;;;;;;;15.35;4.55;;;16.80;99.90;;;;;;5031382;28;20021;-76
2022/10/24 08:36:35;;;;;;;12.63;4.10;;;16.70;99.90;;;;;;5033765;28;20111;-76
2022/10/24 08:39:01;;;;;;;11.55;4.25;;;16.70;99.90;;;;;;5029160;28;20025;-76
2022/10/24 08:41:50;;;;;;;15.05;4.25;;;16.90;99.90;;;;;;5035557;28;20030;-76
2022/10/24 08:44:27;;;;;;;11.25;3.88;;;17.10;99.90;;;;;;5024076;28;20395;-77
2022/10/24 08:47:21;;;;;;;11.70;4.20;;;17.10;99.90;;;;;;5034588;28;20096;-76
2022/10/24 08:50:27;;;;;;;15.65;3.90;;;17.20;99.90;;;;;;5025700;28;20123;-76
2022/10/24 08:53:04;;;;;;;9.65;3.80;;;17.30;99.90;;;;;;5018502;28;20032;-77
2022/10/24 08:55:41;;;;;;;9.13;3.92;;;17.50;99.90;;;;;;5031132;28;20108;-76
2022/10/24 08:58:15;;;;;;;11.57;4.28;;;17.70;99.90;;;;;;5017618;28;20022;-76
2022/10/24 09:00:45;;;;;;;13.73;3.78;;;17.90;99.90;;;;;;5025375;28;20025;-76
2022/10/24 09:03:25;;;;;;;8.85;3.47;;;18.00;99.90;;;;;;5032929;28;20028;-76
2022/10/24 09:05:57;;;;;;;13.35;4.38;;;18.30;99.90;;;;;;5048605;28;20028;-77
2022/10/24 09:08:37;;;;;;;9.95;4.03;;;18.50;99.90;;;;;;5028788;28;20162;-76
2022/10/24 09:11:05;;;;;;;10.13;4.82;;;18.80;99.90;;;;;;5024881;28;20060;-76
2022/10/24 09:13:35;;;;;;;13.77;5.05;;;19.40;99.90;;;;;;5020982;28;20556;-76
2022/10/24 09:16:01;;;;;;;9.90;3.40;;;19.60;99.90;;;;;;5031445;28;20045;-77
2022/10/24 09:18:29;;;;;;;8.13;3.83;;;20.20;99.90;;;;;;5027220;28;20017;-77
2022/10/24 09:20:56;;;;;;;8.20;2.95;;;20.70;99.90;;;;;;5034368;28;20543;-77
2022/10/24 09:23:24;;;;;;;8.13;2.88;;;21.10;99.90;;;;;;5012768;28;20036;-76
2022/10/24 09:25:56;;;;;;;9.77;3.28;;;21.50;99.90;;;;;;5038905;28;20101;-76
2022/10/24 09:28:22;;;;;;;15.10;3.13;;;21.30;99.90;;;;;;4993549;28;20223;-77
2022/10/24 09:30:48;;;;;;;11.50;3.65;;;21.60;99.90;;;;;;5026333;28;20513;-77
2022/10/24 09:33:34;;;;;;;9.52;3.50;;;21.80;99.90;;;;;;5023602;28;20033;-77
2022/10/24 09:36:02;;;;;;;10.95;3.45;;;21.50;99.90;;;;;;5016013;28;20442;-77
2022/10/24 09:38:39;;;;;;;13.65;2.75;;;21.60;99.90;;;;;;5017887;28;20021;-77
2022/10/24 09:41:32;;;;;;;10.20;3.08;;;21.90;99.90;;;;;;5041990;28;20032;-76
2022/10/24 09:44:00;;;;;;;10.20;2.78;;;22.20;99.90;;;;;;5037269;28;20034;-77
2022/10/24 09:46:33;;;;;;;7.28;3.22;;;22.80;99.90;;;;;;5032198;28;20253;-77
2022/10/24 09:49:18;;;;;;;14.88;3.25;;;23.30;99.90;;;;;;5032185;28;20028;-77
2022/10/24 09:51:53;;;;;;;11.60;2.95;;;23.10;99.90;;;;;;5032375;28;20037;-76
2022/10/24 09:54:19;;;;;;;8.15;2.90;;;23.30;98.60;;;;;;5033307;28;20471;-76
2022/10/24 09:56:46;;;;;;;8.05;2.53;;;23.60;96.90;;;;;;5026772;28;20082;-76
2022/10/24 09:59:28;;;;;;;8.38;2.28;;;23.10;96.30;;;;;;5053797;28;20400;-76
2022/10/24 10:02:27;;;;;;;10.77;3.05;;;23.00;96.10;;;;;;5052526;28;20456;-76
2022/10/24 10:05:02;;;;;;;15.93;2.67;;;23.40;95.40;;;;;;5052776;28;20033;-76
2022/10/24 10:07:36;;;;;;;17.25;2.72;;;22.70;95.40;;;;;;5022235;28;20134;-75
2022/10/24 10:10:25;;;;;;;7.55;2.90;;;22.80;95.60;;;;;;5014510;28;20030;-77
2022/10/24 10:13:27;;;;;;;9.93;2.97;;;22.50;95.40;;;;;;5017156;28;20033;-77
2022/10/24 10:16:06;;;;;;;11.65;2.88;;;22.10;96.40;;;;;;5015362;28;20120;-76
2022/10/24 10:19:17;;;;;;;13.65;3.15;;;22.00;96.30;;;;;;5015846;28;20018;-77
2022/10/24 10:22:06;;;;;;;9.20;2.85;;;21.90;96.50;;;;;;5028008;28;20079;-77
2022/10/24 10:24:38;;;;;;;14.55;2.60;;;21.80;96.50;;;;;;5034790;28;20037;-78
2022/10/24 10:27:23;;;;;;;9.82;3.10;;;21.90;96.40;;;;;;5019311;28;20061;-76
2022/10/24 10:30:06;;;;;;;11.90;3.42;;;21.90;96.90;;;;;;5031425;28;20024;-76
2022/10/24 10:32:55;;;;;;;5.13;2.40;;;21.90;96.60;;;;;;5012941;28;20026;-77
2022/10/24 10:35:31;;;;;;;8.35;2.35;;;22.10;96.30;;;;;;5000747;28;20022;-76
2022/10/24 10:38:28;;;;;;;9.75;3.38;;;22.40;96.20;;;;;;5020051;28;20014;-76
2022/10/24 10:41:22;;;;;;;5.18;2.78;;;22.40;95.90;;;;;;5028796;28;20020;-75
2022/10/24 10:44:27;;;;;;;11.27;2.92;;;23.10;94.90;;;;;;5027309;28;20037;-76
2022/10/24 10:47:22;;;;;;;8.45;2.55;;;24.10;94.10;;;;;;5018656;28;20136;-76
2022/10/24 10:49:53;;;;;;;12.55;2.60;;;24.60;91.40;;;;;;5018188;28;20021;-78
2022/10/24 10:52:32;;;;;;;12.77;2.67;;;24.70;91.40;;;;;;5004353;28;20018;-79
2022/10/24 10:55:03;;;;;;;15.32;2.90;;;24.90;91.60;;;;;;5018339;28;20033;-78
2022/10/24 10:57:56;;;;;;;7.95;2.30;;;24.50;91.00;;;;;;5016787;28;20127;-77
2022/10/24 11:00:43;;;;;;;9.93;2.83;;;24.30;90.80;;;;;;5018300;28;20173;-77
2022/10/24 11:03:49;;;;;;;9.10;2.25;;;24.50;90.20;;;;;;5009959;28;20026;-78
2022/10/24 11:06:39;;;;;;;12.55;2.38;;;23.60;90.80;;;;;;5038624;28;20059;-77
2022/10/24 11:09:17;;;;;;;10.03;2.70;;;23.50;91.70;;;;;;5044872;28;20021;-78
2022/10/24 11:11:51;;;;;;;13.50;2.72;;;23.60;91.60;;;;;;5036586;28;20026;-78
2022/10/24 11:14:48;;;;;;;13.35;2.35;;;23.20;91.40;;;;;;5034985;28;20022;-77
2022/10/24 11:17:17;;;;;;;8.35;2.70;;;23.10;92.10;;;;;;5046002;28;20087;-76
2022/10/24 11:20:23;;;;;;;8.57;2.67;;;23.00;91.80;;;;;;5038906;28;20051;-76
2022/10/24 11:22:54;;;;;;;6.28;2.72;;;23.60;92.40;;;;;;5049682;28;20108;-78
2022/10/24 11:25:52;;;;;;;8.75;2.53;;;24.20;90.00;;;;;;5017969;28;20513;-77
2022/10/24 11:28:38;;;;;;;10.45;3.00;;;24.50;90.00;;;;;;5035920;28;20034;-77
2022/10/24 11:31:17;;;;;;;7.50;2.58;;;24.60;89.30;;;;;;5041762;28;20018;-77
2022/10/24 11:33:59;;;;;;;8.65;3.10;;;25.00;90.30;;;;;;5055200;28;20021;-77
2022/10/24 11:36:54;;;;;;;10.40;2.83;;;25.90;86.60;;;;;;5036844;28;20025;-77
2022/10/24 11:39:26;;;;;;;12.32;2.83;;;27.10;83.90;;;;;;5032592;28;20013;-77
2022/10/24 11:42:22;;;;;;;12.15;2.58;;;26.50;81.60;;;;;;5030724;28;20017;-78
2022/10/24 11:45:18;;;;;;;10.45;2.58;;;25.80;85.50;;;;;;5016848;28;20022;-77
2022/10/24 11:47:53;;;;;;;10.90;2.85;;;26.70;82.20;;;;;;5012738;28;20091;-77
2022/10/24 11:50:41;;;;;;;9.52;2.40;;;26.40;79.30;;;;;;5031954;28;20045;-76
2022/10/24 11:53:40;;;;;;;10.77;3.42;;;24.90;82.10;;;;;;5028636;28;20048;-75
2022/10/24 11:56:39;;;;;;;9.68;2.72;;;24.30;84.80;;;;;;4998605;28;20028;-76
2022/10/24 11:59:15;;;;;;;10.32;2.65;;;24.30;85.20;;;;;;5017131;28;20026;-77
2022/10/24 12:02:06;;;;;;;7.53;2.60;;;24.40;84.10;;;;;;5012862;28;20061;-78
2022/10/24 12:04:43;;;;;;;11.75;2.55;;;24.40;84.10;;;;;;5023767;28;20108;-78
2022/10/24 12:07:47;;;;;;;21.35;2.75;;;24.70;83.80;;;;;;5016013;28;20038;-78
2022/10/24 12:10:42;;;;;;;15.43;3.10;;;24.60;83.10;;;;;;5041562;28;20029;-79
2022/10/24 12:13:47;;;;;;;12.45;2.42;;;25.30;83.80;;;;;;5051060;28;20056;-79
2022/10/24 12:16:45;;;;;;;11.40;2.75;;;26.10;78.50;;;;;;5035109;28;20053;-77
2022/10/24 12:19:13;;;;;;;12.88;2.50;;;25.50;80.50;;;;;;5053507;28;20156;-76
2022/10/24 12:22:03;;;;;;;8.70;2.47;;;25.10;80.40;;;;;;5027278;28;20041;-77
2022/10/24 12:24:31;;;;;;;6.00;2.72;;;24.40;81.50;;;;;;5028775;28;20493;-76
2022/10/24 12:27:27;;;;;;;9.52;2.30;;;24.20;83.20;;;;;;5006245;28;20449;-77
2022/10/24 12:30:20;;;;;;;9.10;2.33;;;24.00;83.40;;;;;;5016892;28;20037;-78
2022/10/24 12:32:49;;;;;;;8.10;2.38;;;24.10;82.60;;;;;;5014425;28;20051;-77
2022/10/24 12:35:39;;;;;;;8.32;2.28;;;23.60;82.40;;;;;;5009526;28;20024;-77
2022/10/24 12:38:34;;;;;;;12.57;2.80;;;23.10;86.30;;;;;;5021196;28;20029;-77
2022/10/24 12:41:08;;;;;;;5.45;1.90;;;23.40;87.00;;;;;;5010673;28;20052;-77
2022/10/24 12:43:46;;;;;;;8.07;2.90;;;23.70;83.80;;;;;;5023043;28;20494;-77
2022/10/24 12:46:15;;;;;;;9.38;2.10;;;23.40;84.70;;;;;;5030154;28;20117;-77
2022/10/24 12:48:41;;;;;;;9.38;2.50;;;23.10;84.00;;;;;;5004122;28;20026;-77
2022/10/24 12:51:26;;;;;;;6.72;2.15;;;23.10;84.70;;;;;;4996106;28;20124;-76
2022/10/24 12:54:04;;;;;;;8.80;2.50;;;23.20;86.40;;;;;;5014991;28;20370;-77
2022/10/24 12:56:32;;;;;;;8.65;2.28;;;23.50;85.70;;;;;;5035404;28;20031;-77
2022/10/24 12:59:02;;;;;;;4.50;1.67;;;23.10;85.20;;;;;;5032887;28;20128;-76
2022/10/24 13:01:36;;;;;;;10.02;2.30;;;22.60;85.10;;;;;;5019641;28;20364;-75
2022/10/24 13:04:40;;;;;;;7.43;1.90;;;22.50;87.90;;;;;;5008907;28;20030;-76
2022/10/24 13:07:37;;;;;;;6.68;2.38;;;22.20;86.80;;;;;;5023530;28;20390;-76
2022/10/24 13:10:25;;;;;;;9.90;2.72;;;21.80;89.60;;;;;;5028152;28;20021;-77
2022/10/24 13:13:28;;;;;;;11.15;2.67;;;21.70;88.90;;;;;;5030099;28;20028;-78